Domov               UVHVVR             MKGP            O straneh              
ZDRAVSTVENO VARSTVO RASTLIN
  MREŽA AGROMET. POSTAJ
 ► PROGNOSTIČNA OBVESTILA
AGROMETEOROLOŠKI PODATKI -
ARSO
OBVLADOVANJE TVEGANJ ZARADI
NEUGODNIH VREMENSKIH RAZMER
  ► NARAVNE NESREČE
  ► SUŠA/MOČA
  ► NAMAKANJE
  ► ŽLED (gozdarstvo)
KARTOGRAFSKI PRIKAZI
SPLETNE POVEZAVE
PROJEKTI IN PUBLIKACIJE

AGROMETEOROLOŠKA MREŽA: VREMENSKE POSTAJE IN FENOLOŠKA OPAZOVANJA

Pregled podatkov za lokacijo Rodine pri Trebnjem APS, meteorološka postaja 49195

Pregled senzorjev na lokaciji

ID Ime Zadnja
vrednost
Datum in čas
zadnje
spremembe
(Lokalni čas)
Tip
senzorja
3769 Sončno sevanje (W/m2) 0 W/m2 24.11.2020 02:30 Pyranometer SP-Lite
3770 Omočenost lista (U) 9 U 24.11.2020 02:30 A730WET
5205 Padavine (mm) 0 mm 24.11.2020 02:30 Generic 0.2 mm
3721 Relativna zračna vlaga (%RH) 100 %RH 24.11.2020 02:30 50YA
5206 Temperatura tal (30 cm) (°C) 6.5 °C 24.11.2020 02:30 ST2
3720 Temperatura (2 m) (°C) 0.4 °C 24.11.2020 02:30 50YA
3726 Smer vetra (2 m) (°) 276 ° 24.11.2020 02:30 566.2S-130
3725 Hitrost vetra (2 m) (km/h) 0 km/h 24.11.2020 02:30 566.2S-176 (200km/h)

Pregled podatkov zadnjih 24 ur

Zap.
št.
Datum in čas
(Centralno
evropski čas)
Rodine pri Trebnjem APS
Sončno
sevanje
Omočenost
lista
Padavine Relativna
zračna
vlaga
Temperatura
tal
(30
cm)
Temperatura
(2
m)
Smer
vetra
(2
m)
Hitrost
vetra
(2
m)
1 24.11.2020 02:30 0 9 0 100 6.5 0.4 276 0
2 24.11.2020 02:00 0 9 0 100 6.6 0.1 124 0
3 24.11.2020 01:30 0 9 0 100 6.5 -0.1 211.7 0
4 24.11.2020 01:00 0 9 0 100 6.5 -0.3 287.7 0
5 24.11.2020 00:30 0 9 0 100 6.5 -0.8 15.3 0
6 24.11.2020 00:00 0 8 0 100 6.5 -0.7 278.3 0
7 23.11.2020 23:30 0 7 0 100 6.5 -0.6 139.1 0
8 23.11.2020 23:00 0 5 0 100 6.5 -0.1 259.7 0
9 23.11.2020 22:30 0 4 0 99 6.5 0.3 115.1 0
10 23.11.2020 22:00 0 3 0 98.4 6.5 0.8 338.1 0
11 23.11.2020 21:30 0 1 0 97.3 6.5 0.9 71.7 0
12 23.11.2020 21:00 0 0 0 95.3 6.5 1.5 228.6 0
13 23.11.2020 20:30 0 0 0 93.8 6.5 2.2 137 0
14 23.11.2020 20:00 0 0 0 93.3 6.5 2.6 350.3 0
15 23.11.2020 19:30 0 0 0 90.6 6.5 3 55.8 0
16 23.11.2020 19:00 0 0 0 87.1 6.4 3.9 313.1 0.2
17 23.11.2020 18:30 0 0 0 84.5 6.4 4.5 299.6 0.1
18 23.11.2020 18:00 0 0 0 82.6 6.4 5 321.4 0
19 23.11.2020 17:30 0 0 0 78.9 6.4 5.6 157.5 0.2
20 23.11.2020 17:00 0.6 0 0 76.7 6.4 6 132.6 0
21 23.11.2020 16:30 5.2 0 0 70.1 6.4 7.2 95.2 0.5
22 23.11.2020 16:00 23.8 0 0 63.5 6.4 8.7 175.9 3.4
23 23.11.2020 15:30 90.2 0 0 49.2 6.4 10.8 158.9 5.5
24 23.11.2020 15:00 150.8 0 0 46.9 6.5 11.5 342.7 1.1
25 23.11.2020 14:30 247.8 0 0 45.8 6.5 12.1 251 1
26 23.11.2020 14:00 221.3 0 0 50.9 6.6 11.6 271.2 2.8
27 23.11.2020 13:30 222.8 0 0 54.6 6.6 11.1 235.8 1.9
28 23.11.2020 13:00 255 0 0 57.7 6.5 10 205.4 1.5
29 23.11.2020 12:30 337.2 0 0 60.8 6.5 8.8 116.7 1.7
30 23.11.2020 12:00 274.1 0 0 64.5 6.5 7.9 193.8 0
31 23.11.2020 11:30 215.2 0 0 66.5 6.5 6.7 224.7 0
32 23.11.2020 11:00 310.9 0 0 72.3 6.6 5.4 158.9 1.5
33 23.11.2020 10:30 285 0 0 79.4 6.7 2.7 215.5 0.2
34 23.11.2020 10:00 272.8 2 0.2 87.6 6.6 0.8 199.2 0
35 23.11.2020 09:30 228.7 1 0 90.1 6.6 -0.2 223.9 0
36 23.11.2020 09:00 132.4 0 0 98.2 6.5 -1.6 185 0
37 23.11.2020 08:30 71.4 0 0 100 6.5 -3.3 184.1 0
38 23.11.2020 08:00 17.7 0 0 100 6.5 -4 77.3 0
39 23.11.2020 07:30 4 0 0 100 6.6 -4.3 65.7 0
40 23.11.2020 07:00 0.4 0 0 100 6.6 -4.2 96.5 0
41 23.11.2020 06:30 0 0 0 100 6.6 -4.2 150.6 0
42 23.11.2020 06:00 0 0 0 100 6.6 -4.5 169.4 0
43 23.11.2020 05:30 0 0 0 100 6.6 -4.9 303.5 0
44 23.11.2020 05:00 0 0 0 100 6.7 -4.5 157.1 0
45 23.11.2020 04:30 0 0 0 100 6.7 -4.7 340.9 0
46 23.11.2020 04:00 0 0 0 100 6.7 -4.5 254.4 0
47 23.11.2020 03:30 0 0 0 100 6.7 -4.6 29.8 0
48 23.11.2020 03:00 0 0 0 100 6.8 -4.4 341.6 0
© 2011 Ministrstvo za kmetijstvo, gozdarstvo in prehrano. Vse pravice pridržane.